Time;durP1;ratioP1;P1;durP2;ratioP2;P2;SDS_P1;SDS_P2;PMS_P1;PMS_P2;Temp;Humidity;BMP_temperature;BMP_pressure;BME280_temperature;BME280_humidity;BME280_pressure;Samples;Min_cycle;Max_cycle;Signal;HPM_P1;HPM_P2
2023/01/17 00:02:23;;;;;;;0.00;0.00;;;-1.90;99.90;;;;;;5115608;28;20122;-77
2023/01/17 00:10:25;;;;;;;0.00;0.00;;;-1.90;99.90;;;;;;5097733;28;20051;-77
2023/01/17 00:12:58;;;;;;;0.00;0.00;;;-1.90;99.90;;;;;;5096337;28;20490;-77
2023/01/17 00:15:28;;;;;;;0.00;0.00;;;-1.80;99.90;;;;;;5115785;28;20052;-77
2023/01/17 00:17:56;;;;;;;0.00;0.00;;;-1.80;99.90;;;;;;5114512;28;20051;-76
2023/01/17 00:26:03;;;;;;;0.00;0.00;;;-1.90;99.90;;;;;;5096227;28;20056;-76
2023/01/17 01:33:46;;;;;;;0.00;0.00;;;-2.20;99.90;;;;;;5114710;28;20164;-77
2023/01/17 01:36:14;;;;;;;0.00;0.00;;;-2.30;99.90;;;;;;5096680;28;20468;-75
2023/01/17 01:38:42;;;;;;;;;;;-2.30;99.90;;;;;;5118084;28;20056;-77
2023/01/17 01:41:09;;;;;;;0.30;0.30;;;-2.00;99.90;;;;;;5100690;28;19920;-76
2023/01/17 01:43:54;;;;;;;0.00;0.00;;;-2.30;99.90;;;;;;5100605;28;20387;-76
2023/01/17 01:46:34;;;;;;;0.00;0.00;;;-2.40;99.90;;;;;;5117834;28;20055;-76
2023/01/17 01:49:10;;;;;;;0.00;0.00;;;-2.40;99.90;;;;;;5083066;28;20040;-77
2023/01/17 01:51:42;;;;;;;0.00;0.00;;;-2.40;99.90;;;;;;5099510;28;20058;-76
2023/01/17 01:54:15;;;;;;;0.00;0.00;;;-2.40;99.90;;;;;;5100598;28;20374;-78
2023/01/17 01:56:47;;;;;;;0.00;0.00;;;-2.40;99.90;;;;;;5100333;28;20369;-77
2023/01/17 01:59:18;;;;;;;0.00;0.00;;;-2.40;99.90;;;;;;5116871;28;20040;-77
2023/01/17 02:01:47;;;;;;;0.00;0.00;;;-2.40;99.90;;;;;;5118504;28;20459;-78
2023/01/17 02:04:16;;;;;;;0.00;0.00;;;-2.40;99.90;;;;;;5116741;28;20156;-76
2023/01/17 02:07:09;;;;;;;0.00;0.00;;;-2.40;99.90;;;;;;5117932;28;20051;-77
2023/01/17 02:09:36;;;;;;;9.50;3.53;;;-1.40;99.90;;;;;;5118266;28;20049;-76
2023/01/17 02:12:05;;;;;;;9.70;4.18;;;-1.90;99.90;;;;;;5116654;28;20062;-76
2023/01/17 02:14:32;;;;;;;8.13;3.65;;;-2.40;99.90;;;;;;5117773;28;20052;-77
2023/01/17 02:17:18;;;;;;;7.93;3.33;;;-2.40;99.90;;;;;;5118029;28;20043;-76
2023/01/17 02:20:13;;;;;;;7.70;3.55;;;-2.40;99.90;;;;;;5117606;28;20043;-78
2023/01/17 02:22:46;;;;;;;10.30;3.60;;;-2.40;99.90;;;;;;5118046;28;20044;-77
2023/01/17 02:25:38;;;;;;;7.25;3.13;;;-2.40;99.90;;;;;;5116574;28;20050;-77
2023/01/17 02:28:24;;;;;;;12.52;3.35;;;-2.40;99.90;;;;;;5117341;28;20051;-78
2023/01/17 02:31:16;;;;;;;6.78;3.38;;;-2.50;99.90;;;;;;5116682;28;20476;-77
2023/01/17 02:33:55;;;;;;;8.50;3.03;;;-2.50;99.90;;;;;;5099749;28;20527;-78
2023/01/17 02:36:30;;;;;;;7.70;3.40;;;-2.50;99.90;;;;;;5117395;28;20043;-76
2023/01/17 02:39:08;;;;;;;8.13;3.10;;;-2.50;99.90;;;;;;5098355;28;20047;-76
2023/01/17 02:41:52;;;;;;;6.40;3.05;;;-2.60;99.90;;;;;;5099749;28;20372;-77
2023/01/17 02:44:20;;;;;;;7.97;3.13;;;-2.60;99.90;;;;;;5098552;28;20051;-77
2023/01/17 02:46:51;;;;;;;8.00;3.10;;;-2.70;99.90;;;;;;5116936;28;20480;-77
2023/01/17 02:49:21;;;;;;;7.35;2.55;;;-2.70;99.90;;;;;;5082929;28;20476;-77
2023/01/17 02:52:04;;;;;;;10.35;3.20;;;-2.80;99.90;;;;;;5116095;28;20048;-77
2023/01/17 02:55:00;;;;;;;9.05;3.28;;;-2.80;99.90;;;;;;5117044;28;20051;-78
2023/01/17 02:58:05;;;;;;;7.72;2.92;;;-2.80;99.90;;;;;;5115707;28;20047;-77
2023/01/17 03:00:38;;;;;;;5.85;2.50;;;-2.80;99.90;;;;;;5099175;28;20040;-78
2023/01/17 03:03:29;;;;;;;8.35;2.78;;;-2.80;99.90;;;;;;5117098;28;20043;-76
2023/01/17 03:06:10;;;;;;;6.93;2.78;;;-2.80;99.90;;;;;;5115613;28;20043;-76
2023/01/17 03:08:42;;;;;;;8.80;3.20;;;-2.80;99.90;;;;;;5116541;28;20048;-78
2023/01/17 03:11:11;;;;;;;6.38;3.00;;;-2.80;99.90;;;;;;5098013;28;20054;-77
2023/01/17 03:13:40;;;;;;;8.50;2.67;;;-2.70;99.90;;;;;;5116563;28;20043;-78
2023/01/17 03:16:13;;;;;;;7.07;2.97;;;-2.70;99.90;;;;;;5116678;28;20048;-76
2023/01/17 03:18:41;;;;;;;9.18;2.63;;;-2.70;99.90;;;;;;5097540;28;20109;-77
2023/01/17 03:21:08;;;;;;;6.90;2.92;;;-2.60;99.90;;;;;;5098480;28;20337;-76
2023/01/17 03:23:36;;;;;;;5.82;2.78;;;-2.60;99.90;;;;;;5116412;28;20054;-77
2023/01/17 03:26:04;;;;;;;9.50;2.90;;;-2.60;99.90;;;;;;5097491;28;20043;-78
2023/01/17 03:28:31;;;;;;;7.80;2.88;;;-2.60;99.90;;;;;;5116472;28;20387;-77
2023/01/17 03:30:59;;;;;;;7.25;2.90;;;-2.60;99.90;;;;;;5115705;28;20047;-76
2023/01/17 03:33:26;;;;;;;7.72;2.65;;;-2.60;99.90;;;;;;5098711;28;20051;-78
2023/01/17 03:35:56;;;;;;;8.48;2.85;;;-2.60;99.90;;;;;;5116081;28;20043;-76
2023/01/17 03:38:25;;;;;;;6.05;2.92;;;-2.60;99.90;;;;;;5097529;28;20048;-78
2023/01/17 03:40:53;;;;;;;5.10;2.60;;;-2.50;99.90;;;;;;5115837;28;20361;-76
2023/01/17 03:43:20;;;;;;;6.47;2.63;;;-2.60;99.90;;;;;;5116421;28;20039;-77
2023/01/17 03:45:50;;;;;;;7.00;2.90;;;-2.60;99.90;;;;;;5114758;28;20044;-77
2023/01/17 03:48:18;;;;;;;9.02;2.90;;;-2.60;99.90;;;;;;5098366;28;20032;-78
2023/01/17 03:50:50;;;;;;;9.15;2.97;;;-2.60;99.90;;;;;;5114844;28;20044;-78
2023/01/17 03:53:17;;;;;;;8.20;2.55;;;-2.70;99.90;;;;;;5115992;28;20064;-77
2023/01/17 03:55:45;;;;;;;6.50;2.70;;;-2.70;99.90;;;;;;5115642;28;20043;-76
2023/01/17 03:58:13;;;;;;;;;;;-2.70;99.90;;;;;;5115551;28;20058;-77
2023/01/17 04:00:41;;;;;;;4.90;2.25;;;-2.80;99.90;;;;;;5115190;28;19927;-77
2023/01/17 04:03:09;;;;;;;10.20;2.47;;;-2.80;99.90;;;;;;5115765;28;20491;-78
2023/01/17 04:05:37;;;;;;;7.55;2.45;;;-2.80;99.90;;;;;;5096484;28;20467;-78
2023/01/17 04:08:05;;;;;;;7.35;2.40;;;-2.90;99.90;;;;;;5115274;28;20044;-78
2023/01/17 04:10:33;;;;;;;6.10;2.35;;;-2.90;99.90;;;;;;5097701;28;20047;-78
2023/01/17 04:13:01;;;;;;;8.77;2.60;;;-2.90;99.90;;;;;;5114693;28;20066;-78
2023/01/17 04:15:28;;;;;;;9.07;2.30;;;-2.90;99.90;;;;;;5064597;28;20066;-77
2023/01/17 04:17:57;;;;;;;6.28;2.45;;;-2.90;99.90;;;;;;5114433;28;20085;-79
2023/01/17 04:20:36;;;;;;;9.10;2.53;;;-3.00;99.90;;;;;;5115373;28;20050;-78
2023/01/17 04:23:03;;;;;;;6.78;2.60;;;-3.00;99.90;;;;;;5097659;28;20044;-78
2023/01/17 04:25:31;;;;;;;;;;;-3.00;99.90;;;;;;5096656;28;20048;-78
2023/01/17 04:27:59;;;;;;;;;;;-3.10;99.90;;;;;;5098106;28;19927;-78
2023/01/17 04:30:28;;;;;;;4.78;1.88;;;-1.80;99.90;;;;;;5115315;28;19920;-75
2023/01/17 04:32:56;;;;;;;7.13;2.50;;;-3.10;99.90;;;;;;5114184;28;20058;-77
2023/01/17 04:35:24;;;;;;;6.72;2.40;;;-3.10;99.90;;;;;;5080436;28;20039;-77
2023/01/17 04:37:51;;;;;;;;;;;-3.10;99.90;;;;;;5114467;28;20047;-77
2023/01/17 04:40:19;;;;;;;5.78;2.20;;;-3.10;99.90;;;;;;5097126;28;19920;-77
2023/01/17 04:42:47;;;;;;;8.30;2.08;;;-3.10;99.90;;;;;;5115107;28;20364;-76
2023/01/17 04:45:15;;;;;;;7.70;2.35;;;-3.10;99.90;;;;;;5096207;28;20048;-76
2023/01/17 04:47:43;;;;;;;5.38;1.80;;;-3.20;99.90;;;;;;5097135;28;20338;-76
2023/01/17 04:50:11;;;;;;;10.75;2.90;;;-3.20;99.90;;;;;;5115039;28;20047;-78
2023/01/17 04:52:38;;;;;;;13.00;1.95;;;-3.20;99.90;;;;;;5096315;28;20039;-75
2023/01/17 04:55:06;;;;;;;6.03;2.20;;;-3.20;99.90;;;;;;5080127;28;20488;-77
2023/01/17 04:57:34;;;;;;;4.55;2.00;;;-3.30;99.90;;;;;;5096267;28;20062;-76
2023/01/17 05:00:03;;;;;;;7.50;2.33;;;-3.30;99.90;;;;;;5063452;28;20062;-76
2023/01/17 05:02:31;;;;;;;6.97;2.30;;;-3.30;99.90;;;;;;5114818;28;20048;-76
2023/01/17 05:04:58;;;;;;;10.57;1.95;;;-3.30;99.90;;;;;;5113722;28;20040;-75
2023/01/17 05:07:26;;;;;;;8.93;2.35;;;-3.30;99.90;;;;;;5080585;28;20051;-77
2023/01/17 05:09:55;;;;;;;7.13;2.20;;;-3.40;99.90;;;;;;5114941;28;20043;-78
2023/01/17 05:12:23;;;;;;;4.50;1.90;;;-3.40;99.90;;;;;;5115598;28;20399;-78
2023/01/17 05:14:50;;;;;;;5.20;2.13;;;-3.50;99.90;;;;;;5100891;28;20043;-78
2023/01/17 05:17:18;;;;;;;7.47;1.90;;;-3.50;99.90;;;;;;5117745;28;20053;-76
2023/01/17 05:19:46;;;;;;;5.65;2.00;;;-3.60;99.90;;;;;;5101013;28;20054;-76
2023/01/17 05:22:14;;;;;;;5.78;2.25;;;-3.60;99.90;;;;;;5084027;28;20047;-78
2023/01/17 05:24:46;;;;;;;8.15;2.30;;;-3.60;99.90;;;;;;5117729;28;20048;-78
2023/01/17 05:27:13;;;;;;;5.88;1.77;;;-3.60;99.90;;;;;;5118800;28;20039;-76
2023/01/17 05:29:41;;;;;;;7.30;2.40;;;-3.60;99.90;;;;;;5119189;28;20039;-76
2023/01/17 05:32:08;;;;;;;6.47;2.25;;;-3.70;99.90;;;;;;5099847;28;20056;-78
2023/01/17 05:34:36;;;;;;;9.25;2.33;;;-3.70;99.90;;;;;;5118655;28;20498;-76
2023/01/17 05:37:04;;;;;;;5.57;1.95;;;-3.70;99.90;;;;;;5118702;28;20054;-77
2023/01/17 05:39:31;;;;;;;4.53;2.13;;;-3.70;99.90;;;;;;5117281;28;20345;-78
2023/01/17 05:41:58;;;;;;;6.70;2.33;;;-3.70;99.90;;;;;;5118729;28;20055;-77
2023/01/17 05:44:26;;;;;;;5.18;2.10;;;-3.70;99.90;;;;;;5117203;28;20044;-77
2023/01/17 05:46:55;;;;;;;5.55;2.20;;;-3.70;99.90;;;;;;5118262;28;20044;-75
2023/01/17 05:49:22;;;;;;;5.28;2.00;;;-3.80;99.90;;;;;;5118537;28;20453;-78
2023/01/17 05:51:50;;;;;;;5.68;1.73;;;-3.80;99.90;;;;;;5117143;28;20129;-76
2023/01/17 05:54:21;;;;;;;5.88;2.13;;;-3.80;99.90;;;;;;5118064;28;20518;-78
2023/01/17 05:56:48;;;;;;;9.40;2.30;;;-3.80;99.90;;;;;;5118258;28;20385;-76
2023/01/17 05:59:16;;;;;;;12.18;2.38;;;-3.80;99.90;;;;;;5098931;28;20052;-76
2023/01/17 06:02:02;;;;;;;7.10;2.15;;;-3.80;99.90;;;;;;5118280;28;20050;-79
2023/01/17 06:04:30;;;;;;;8.40;2.38;;;-2.00;99.90;;;;;;5116887;28;20376;-78
2023/01/17 06:06:57;;;;;;;8.85;2.00;;;-3.90;99.90;;;;;;5100178;28;20044;-77
2023/01/17 06:09:25;;;;;;;9.73;2.20;;;-3.90;99.90;;;;;;5117655;28;20048;-77
2023/01/17 06:11:52;;;;;;;6.50;2.03;;;-3.90;99.90;;;;;;5116651;28;20051;-79
2023/01/17 06:14:19;;;;;;;8.85;2.38;;;-3.90;99.90;;;;;;5100259;28;20460;-77
2023/01/17 06:16:47;;;;;;;10.27;2.17;;;-3.90;99.90;;;;;;5100012;28;20059;-77
2023/01/17 06:19:14;;;;;;;4.95;1.95;;;-3.90;99.90;;;;;;5116532;28;20047;-79
2023/01/17 06:21:42;;;;;;;6.18;2.10;;;-3.90;99.90;;;;;;5100244;28;20039;-76
2023/01/17 06:24:09;;;;;;;4.35;2.10;;;-3.90;99.90;;;;;;5098523;28;20051;-79
2023/01/17 06:26:37;;;;;;;8.07;2.42;;;-3.90;99.90;;;;;;5099765;28;20372;-76
2023/01/17 06:29:04;;;;;;;5.07;2.47;;;-3.90;99.90;;;;;;5116948;28;20059;-77
2023/01/17 06:31:31;;;;;;;8.35;2.25;;;-3.90;99.90;;;;;;5116333;28;20067;-77
2023/01/17 06:34:02;;;;;;;8.70;2.35;;;-3.90;99.90;;;;;;5117489;28;20040;-79
2023/01/17 06:36:31;;;;;;;7.13;2.35;;;-3.90;99.90;;;;;;5117764;28;20070;-77
2023/01/17 06:38:58;;;;;;;5.57;2.30;;;-3.90;99.90;;;;;;5116129;28;20051;-76
2023/01/17 06:41:26;;;;;;;4.95;1.88;;;-4.00;99.90;;;;;;5117322;28;20368;-79
2023/01/17 06:43:55;;;;;;;9.02;2.17;;;-4.00;99.90;;;;;;5082866;28;20040;-79
2023/01/17 06:46:22;;;;;;;7.57;2.22;;;-4.00;99.90;;;;;;5098930;28;20040;-78
2023/01/17 06:48:50;;;;;;;8.88;2.58;;;-4.00;99.90;;;;;;5117091;28;20043;-77
2023/01/17 06:51:17;;;;;;;6.90;2.75;;;-4.10;99.90;;;;;;5115889;28;20047;-79
2023/01/17 06:53:47;;;;;;;8.13;2.90;;;-4.00;99.90;;;;;;5117551;28;20047;-80
2023/01/17 06:56:15;;;;;;;7.50;2.60;;;-4.10;99.90;;;;;;5117117;28;20046;-77
2023/01/17 06:58:42;;;;;;;9.27;2.97;;;-1.60;99.90;;;;;;5115879;28;20043;-80
2023/01/17 07:01:11;;;;;;;12.70;3.03;;;-4.10;99.90;;;;;;5116712;28;20340;-78
2023/01/17 07:03:39;;;;;;;7.47;2.45;;;-4.10;99.90;;;;;;5099094;28;20050;-80
2023/01/17 07:06:08;;;;;;;9.65;2.75;;;-4.10;99.90;;;;;;5098076;28;20051;-79
2023/01/17 07:08:36;;;;;;;8.82;2.67;;;-4.00;99.90;;;;;;5069396;28;20052;-78
2023/01/17 07:11:07;;;;;;;6.93;2.55;;;-4.20;99.90;;;;;;5060748;28;20059;-77
2023/01/17 07:13:37;;;;;;;7.85;2.70;;;-4.10;99.90;;;;;;5079545;28;20047;-77
2023/01/17 07:16:06;;;;;;;6.90;2.58;;;-4.10;99.90;;;;;;5079030;28;20080;-77
2023/01/17 07:18:34;;;;;;;7.70;2.90;;;-4.10;99.90;;;;;;5095642;28;20047;-78
2023/01/17 07:21:01;;;;;;;5.75;2.05;;;-4.10;99.90;;;;;;5061910;28;20044;-78
2023/01/17 07:23:28;;;;;;;10.40;2.78;;;-4.10;99.90;;;;;;5078611;28;20051;-79
2023/01/17 07:25:58;;;;;;;6.85;2.35;;;-4.20;99.90;;;;;;5094581;28;20491;-77
2023/01/17 07:28:27;;;;;;;5.78;2.53;;;-4.10;99.90;;;;;;5096049;28;20059;-78
2023/01/17 07:30:57;;;;;;;10.98;2.60;;;-4.10;99.90;;;;;;5093164;28;20302;-79
2023/01/17 07:33:24;;;;;;;;;;;-4.10;99.90;;;;;;5061649;28;20048;-78
2023/01/17 07:35:52;;;;;;;6.78;2.33;;;-4.10;99.90;;;;;;5077509;28;19920;-78
2023/01/17 07:38:19;;;;;;;6.00;2.47;;;-4.20;99.90;;;;;;5060576;28;20040;-79
2023/01/17 07:40:47;;;;;;;6.82;2.80;;;-4.20;99.90;;;;;;5096458;28;20040;-76
2023/01/17 07:43:15;;;;;;;8.25;2.78;;;-4.20;99.90;;;;;;5095969;28;20452;-79
2023/01/17 07:45:45;;;;;;;9.93;3.38;;;-4.20;99.90;;;;;;5076779;28;20048;-78
2023/01/17 07:48:12;;;;;;;7.90;3.00;;;-4.20;99.90;;;;;;5078135;28;20055;-76
2023/01/17 07:50:40;;;;;;;12.70;4.53;;;-4.20;99.90;;;;;;5094619;28;20044;-79
2023/01/17 07:53:08;;;;;;;11.38;3.88;;;-4.20;99.90;;;;;;5077779;28;20048;-77
2023/01/17 07:55:36;;;;;;;11.73;4.50;;;-4.20;99.90;;;;;;5077894;28;20172;-77
2023/01/17 07:58:03;;;;;;;11.70;3.70;;;-4.20;99.90;;;;;;5076685;28;20040;-79
2023/01/17 08:00:31;;;;;;;9.25;3.20;;;-4.10;99.90;;;;;;5095860;28;20043;-76
2023/01/17 08:03:00;;;;;;;7.43;2.95;;;-4.10;99.90;;;;;;5077840;28;20472;-79
2023/01/17 08:05:29;;;;;;;13.88;2.85;;;-4.10;99.90;;;;;;5093323;28;20044;-77
2023/01/17 08:07:57;;;;;;;7.00;2.65;;;-4.10;99.90;;;;;;5084517;28;20055;-76
2023/01/17 08:10:24;;;;;;;10.73;2.90;;;-2.10;99.90;;;;;;5097811;28;20047;-79
2023/01/17 08:12:54;;;;;;;11.32;2.95;;;-4.20;99.90;;;;;;5114174;28;20039;-76
2023/01/17 08:15:25;;;;;;;6.78;2.70;;;-4.10;99.90;;;;;;5097309;28;20044;-76
2023/01/17 08:17:53;;;;;;;12.23;3.53;;;-4.10;99.90;;;;;;5114244;28;20499;-78
2023/01/17 08:20:20;;;;;;;11.75;3.88;;;-4.20;99.90;;;;;;5114746;28;20368;-76
2023/01/17 08:22:50;;;;;;;15.98;4.78;;;-4.20;99.90;;;;;;5115246;28;20039;-77
2023/01/17 08:25:19;;;;;;;13.93;4.05;;;-4.10;99.90;;;;;;5095771;28;20498;-79
2023/01/17 08:27:47;;;;;;;16.65;5.93;;;-4.10;99.90;;;;;;5097449;28;20043;-79
2023/01/17 08:30:15;;;;;;;14.38;6.32;;;-4.00;99.90;;;;;;5097239;28;20039;-81
2023/01/17 08:32:43;;;;;;;11.63;5.20;;;-3.90;99.90;;;;;;5096553;28;20380;-78
2023/01/17 08:35:13;;;;;;;27.17;10.13;;;-2.90;99.90;;;;;;5096816;28;20051;-78
2023/01/17 08:37:40;;;;;;;23.45;9.23;;;-1.70;99.90;;;;;;5096282;28;20050;-79
2023/01/17 08:40:09;;;;;;;22.48;9.60;;;-2.40;99.90;;;;;;5097162;28;20400;-78
2023/01/17 08:42:40;;;;;;;11.85;5.03;;;-4.30;99.90;;;;;;5097207;28;20043;-77
2023/01/17 08:45:11;;;;;;;14.52;5.20;;;-4.50;99.90;;;;;;5075611;28;20052;-73
2023/01/17 08:47:42;;;;;;;19.45;6.13;;;-3.80;99.90;;;;;;5082564;28;20044;-78
2023/01/17 08:50:10;;;;;;;20.35;7.55;;;-4.20;99.90;;;;;;5109908;28;20468;-77
2023/01/17 08:52:37;;;;;;;22.67;6.25;;;-3.70;99.90;;;;;;5113570;28;20044;-82
2023/01/17 08:55:08;;;;;;;20.23;6.05;;;-3.60;99.90;;;;;;5109814;28;20054;-76
2023/01/17 08:57:36;;;;;;;13.38;4.53;;;-3.60;99.90;;;;;;5090086;28;20055;-77
2023/01/17 09:00:06;;;;;;;16.10;5.65;;;-2.00;99.90;;;;;;5114762;28;20059;-75
2023/01/17 09:02:34;;;;;;;12.90;4.28;;;-3.50;99.90;;;;;;5114322;28;20039;-77
2023/01/17 09:05:02;;;;;;;12.40;5.35;;;-3.40;99.90;;;;;;5095487;28;20039;-76
2023/01/17 09:07:29;;;;;;;;;;;-3.40;99.90;;;;;;5114136;28;20054;-78
2023/01/17 09:09:57;;;;;;;12.52;4.15;;;-1.60;99.90;;;;;;5114821;28;19920;-75
2023/01/17 09:12:25;;;;;;;10.48;4.55;;;-3.30;99.90;;;;;;5114109;28;20059;-77
2023/01/17 09:14:52;;;;;;;16.80;4.15;;;-3.30;99.90;;;;;;5114960;28;20066;-76
2023/01/17 09:17:20;;;;;;;14.48;4.20;;;-3.20;99.90;;;;;;5079720;28;20379;-76
2023/01/17 09:19:47;;;;;;;11.65;4.28;;;-3.20;99.90;;;;;;5097269;28;20048;-76
2023/01/17 09:22:15;;;;;;;10.93;4.50;;;-3.20;99.90;;;;;;5097460;28;20035;-77
2023/01/17 09:24:43;;;;;;;15.43;4.40;;;-3.10;99.90;;;;;;5096139;28;20043;-76
2023/01/17 09:27:10;;;;;;;14.52;4.85;;;-3.00;99.90;;;;;;5107569;28;20454;-76
2023/01/17 09:29:38;;;;;;;14.00;5.00;;;-3.00;99.90;;;;;;5076509;28;20040;-77
2023/01/17 09:32:06;;;;;;;15.20;4.75;;;-2.90;99.90;;;;;;5076292;28;20048;-75
2023/01/17 09:34:33;;;;;;;19.95;6.22;;;-2.90;99.90;;;;;;5076648;28;20044;-75
2023/01/17 09:37:00;;;;;;;15.23;5.07;;;-2.90;99.90;;;;;;5076409;28;20044;-76
2023/01/17 09:39:28;;;;;;;19.15;5.85;;;-1.30;99.90;;;;;;5058890;28;20048;-77
2023/01/17 09:42:16;;;;;;;13.80;5.45;;;-2.70;99.90;;;;;;5076188;28;20058;-77
2023/01/17 09:44:52;;;;;;;18.13;6.10;;;-2.60;99.90;;;;;;5093378;28;20040;-78
2023/01/17 09:47:42;;;;;;;17.23;5.70;;;-2.60;99.90;;;;;;5094648;28;20051;-77
2023/01/17 09:50:34;;;;;;;20.67;5.75;;;-2.50;99.90;;;;;;5076366;28;20473;-75
2023/01/17 09:53:04;;;;;;;15.98;5.68;;;-2.40;99.90;;;;;;5092501;28;20065;-77
2023/01/17 09:55:57;;;;;;;19.40;7.93;;;-2.40;99.90;;;;;;5076237;28;20063;-76
2023/01/17 09:58:35;;;;;;;16.50;6.43;;;-2.40;99.90;;;;;;5089452;28;20055;-78
2023/01/17 10:01:05;;;;;;;19.10;7.20;;;-2.30;99.90;;;;;;5077727;28;20032;-75
2023/01/17 10:03:51;;;;;;;14.98;7.50;;;-2.20;99.90;;;;;;5097230;28;20040;-75
2023/01/17 10:06:22;;;;;;;15.82;7.45;;;-2.20;99.90;;;;;;5078980;28;20051;-75
2023/01/17 10:08:58;;;;;;;19.92;9.23;;;-2.10;99.90;;;;;;5079955;28;20384;-75
2023/01/17 10:11:35;;;;;;;22.42;8.88;;;-2.10;99.90;;;;;;5096574;28;20051;-77
2023/01/17 10:14:37;;;;;;;19.50;9.45;;;-2.00;99.90;;;;;;5080031;28;20048;-77
2023/01/17 10:17:23;;;;;;;18.63;8.77;;;-1.90;99.90;;;;;;5063030;28;20048;-75
2023/01/17 10:20:03;;;;;;;21.55;8.48;;;-1.80;99.90;;;;;;5097937;28;20059;-77
2023/01/17 10:22:48;;;;;;;18.63;7.88;;;-1.80;99.90;;;;;;5079718;28;20133;-75
2023/01/17 10:25:37;;;;;;;21.40;8.30;;;-1.70;99.90;;;;;;5079002;28;20052;-76
2023/01/17 10:28:36;;;;;;;18.73;8.02;;;-1.70;99.90;;;;;;5079889;28;20052;-75
2023/01/17 10:31:13;;;;;;;19.58;8.25;;;-1.60;99.90;;;;;;5090149;28;20484;-77
2023/01/17 10:33:55;;;;;;;25.13;9.00;;;-1.50;99.90;;;;;;5097275;28;20113;-75
2023/01/17 10:36:30;;;;;;;22.23;8.20;;;-1.50;99.90;;;;;;5079575;28;20585;-75
2023/01/17 10:39:24;;;;;;;19.00;8.10;;;-1.40;99.90;;;;;;5078400;28;20044;-75
2023/01/17 10:42:05;;;;;;;28.13;11.75;;;-1.30;99.90;;;;;;5097547;28;20055;-76
2023/01/17 10:44:42;;;;;;;23.85;8.20;;;-1.30;99.90;;;;;;5095854;28;20040;-75
2023/01/17 10:47:10;;;;;;;22.80;8.80;;;-1.20;99.90;;;;;;5078541;28;20058;-76
2023/01/17 10:49:46;;;;;;;24.33;9.63;;;-1.20;99.90;;;;;;5096552;28;20055;-76
2023/01/17 10:52:49;;;;;;;36.33;16.02;;;-1.10;99.90;;;;;;5061174;28;20404;-77
2023/01/17 10:55:32;;;;;;;27.45;10.68;;;-1.10;99.90;;;;;;5096311;28;20048;-75
2023/01/17 10:58:00;;;;;;;25.55;9.65;;;-1.70;99.90;;;;;;5095377;28;20044;-77
2023/01/17 11:00:48;;;;;;;24.40;9.30;;;-1.00;99.90;;;;;;5078383;28;20066;-77
2023/01/17 11:03:26;;;;;;;25.33;10.00;;;-0.90;99.90;;;;;;5078391;28;20380;-78
2023/01/17 11:06:17;;;;;;;22.52;10.68;;;-0.90;99.90;;;;;;5061315;28;20073;-76
2023/01/17 11:08:53;;;;;;;24.80;10.93;;;-0.90;99.90;;;;;;5095274;28;20040;-74
2023/01/17 11:11:30;;;;;;;20.98;9.50;;;-0.90;99.90;;;;;;5094934;28;20058;-78
2023/01/17 11:14:14;;;;;;;20.60;8.73;;;-0.90;99.90;;;;;;5095760;28;20051;-78
2023/01/17 11:16:42;;;;;;;23.17;8.77;;;-0.90;99.90;;;;;;5096015;28;20059;-76
2023/01/17 11:19:30;;;;;;;;;;;-0.90;99.90;;;;;;5077250;28;20074;-76
2023/01/17 11:22:03;;;;;;;18.95;8.50;;;-0.90;99.90;;;;;;5095842;28;20371;-77
2023/01/17 11:24:39;;;;;;;18.90;8.13;;;-0.80;99.90;;;;;;5077295;28;20055;-76
2023/01/17 11:27:21;;;;;;;23.08;8.95;;;-0.80;99.90;;;;;;5061619;28;20059;-75
2023/01/17 11:30:05;;;;;;;24.80;9.40;;;-0.80;99.90;;;;;;5078078;28;20063;-75
2023/01/17 11:32:33;;;;;;;21.52;8.95;;;-0.70;99.90;;;;;;5094719;28;20040;-76
2023/01/17 11:35:21;;;;;;;;;;;-0.60;99.90;;;;;;5096156;28;20044;-74
2023/01/17 11:37:55;;;;;;;25.67;9.82;;;-0.60;99.90;;;;;;5095029;28;19931;-75
2023/01/17 11:40:29;;;;;;;27.38;10.30;;;-0.60;99.90;;;;;;5096962;28;20047;-78
2023/01/17 11:43:17;;;;;;;24.13;9.88;;;-0.60;99.90;;;;;;5115131;28;20066;-83
2023/01/17 11:45:59;;;;;;;26.63;9.82;;;-0.50;99.90;;;;;;5110200;28;20062;-76
2023/01/17 11:48:34;;;;;;;28.10;10.50;;;-0.50;99.90;;;;;;5115677;28;20036;-75
2023/01/17 11:51:09;;;;;;;23.95;10.30;;;-0.40;99.90;;;;;;5115668;28;20040;-75
2023/01/17 11:53:39;;;;;;;26.63;10.65;;;-0.30;99.90;;;;;;5116658;28;20348;-75
2023/01/17 11:56:07;;;;;;;28.45;11.98;;;-0.20;99.90;;;;;;5115749;28;20486;-75
2023/01/17 11:58:41;;;;;;;26.67;11.43;;;-0.10;99.90;;;;;;5114913;28;20047;-76
2023/01/17 12:01:20;;;;;;;20.73;9.88;;;-0.10;99.90;;;;;;5081699;28;20047;-75
2023/01/17 12:03:56;;;;;;;24.08;10.35;;;0.00;99.90;;;;;;5116064;28;20487;-75
2023/01/17 12:06:45;;;;;;;21.45;10.30;;;0.10;99.90;;;;;;5098660;28;20044;-75
2023/01/17 12:09:54;;;;;;;26.10;10.93;;;0.20;99.90;;;;;;5080674;28;20051;-76
2023/01/17 12:15:50;;;;;;;24.00;10.05;;;0.30;99.90;;;;;;5097923;28;20079;-75
2023/01/17 12:18:21;;;;;;;30.27;10.63;;;0.40;99.90;;;;;;5114556;28;20499;-77
2023/01/17 12:21:04;;;;;;;23.88;10.27;;;0.50;99.90;;;;;;5115415;28;20048;-76
2023/01/17 12:23:43;;;;;;;28.05;10.13;;;0.50;99.90;;;;;;5115297;28;20059;-77
2023/01/17 12:26:40;;;;;;;16.38;8.50;;;0.50;99.90;;;;;;5114449;28;20039;-76
2023/01/17 12:29:27;;;;;;;20.27;8.30;;;0.60;99.90;;;;;;5094808;28;20055;-78
2023/01/17 12:32:04;;;;;;;22.63;9.30;;;0.60;99.90;;;;;;5096715;28;20483;-75
2023/01/17 12:34:40;;;;;;;23.27;10.18;;;0.60;99.90;;;;;;5095026;28;20058;-80
2023/01/17 12:37:20;;;;;;;20.67;8.70;;;0.60;99.90;;;;;;5093531;28;20059;-77
2023/01/17 12:39:58;;;;;;;19.55;8.18;;;0.60;99.90;;;;;;5094535;28;20044;-79
2023/01/17 12:42:29;;;;;;;;;;;0.60;99.90;;;;;;5095037;28;20048;-76
2023/01/17 12:45:06;;;;;;;20.23;8.00;;;0.60;99.90;;;;;;5093670;28;19920;-79
2023/01/17 12:47:41;;;;;;;16.77;7.90;;;0.70;99.90;;;;;;5076898;28;20044;-75
2023/01/17 12:50:25;;;;;;;21.27;8.15;;;0.70;99.90;;;;;;5060267;28;20047;-75
2023/01/17 12:53:11;;;;;;;16.65;7.78;;;0.60;99.90;;;;;;5093131;28;20063;-74
2023/01/17 12:55:45;;;;;;;20.38;8.30;;;0.70;99.90;;;;;;5076925;28;20051;-77
2023/01/17 12:58:25;;;;;;;25.17;8.25;;;0.70;99.90;;;;;;5093576;28;20056;-78
2023/01/17 13:01:03;;;;;;;17.13;7.07;;;0.70;99.90;;;;;;5076729;28;20052;-75
2023/01/17 13:03:56;;;;;;;21.80;7.57;;;1.00;99.90;;;;;;5076591;28;20048;-74
2023/01/17 13:06:43;;;;;;;15.98;6.53;;;0.70;99.90;;;;;;5076534;28;20453;-76
2023/01/17 13:09:16;;;;;;;15.15;7.07;;;0.70;99.90;;;;;;5094184;28;20062;-78
2023/01/17 13:12:05;;;;;;;17.52;6.28;;;0.70;99.90;;;;;;5102246;28;20040;-77
2023/01/17 13:14:33;;;;;;;12.95;5.97;;;0.70;99.90;;;;;;5104590;28;20040;-78
2023/01/17 13:17:19;;;;;;;15.45;6.55;;;0.70;99.90;;;;;;5053846;28;20492;-75
2023/01/17 13:20:10;;;;;;;21.00;6.93;;;1.80;99.90;;;;;;5105107;28;20349;-77
2023/01/17 13:22:39;;;;;;;15.30;6.75;;;0.70;99.90;;;;;;5089967;28;20043;-78
2023/01/17 13:25:28;;;;;;;16.13;7.32;;;0.60;99.90;;;;;;5087854;28;20372;-79
2023/01/17 13:28:23;;;;;;;21.00;8.00;;;0.70;99.90;;;;;;5096842;28;20050;-76
2023/01/17 13:31:07;;;;;;;18.52;7.70;;;0.80;99.90;;;;;;5113586;28;20039;-76
2023/01/17 13:33:49;;;;;;;19.05;8.32;;;0.80;99.90;;;;;;5116581;28;20051;-78
2023/01/17 13:36:28;;;;;;;18.52;8.07;;;0.80;99.90;;;;;;5083427;28;20361;-78
2023/01/17 13:39:05;;;;;;;19.75;8.48;;;0.90;99.90;;;;;;5117315;28;20062;-78
2023/01/17 13:41:33;;;;;;;20.20;8.70;;;0.90;99.90;;;;;;5118369;28;20040;-75
2023/01/17 13:44:23;;;;;;;26.45;10.00;;;0.90;99.90;;;;;;5117267;28;20051;-79
2023/01/17 13:47:05;;;;;;;23.95;10.00;;;1.00;99.90;;;;;;5118043;28;20063;-76
2023/01/17 13:49:42;;;;;;;25.45;10.98;;;1.00;99.90;;;;;;5118342;28;20040;-78
2023/01/17 13:52:18;;;;;;;23.95;11.32;;;1.00;99.90;;;;;;5099619;28;20036;-76
2023/01/17 13:54:50;;;;;;;24.50;11.23;;;2.20;99.90;;;;;;5100993;28;20382;-76
2023/01/17 13:57:31;;;;;;;30.48;12.38;;;1.00;99.90;;;;;;5099826;28;20376;-78
2023/01/17 14:00:21;;;;;;;26.10;11.73;;;1.10;99.90;;;;;;5118258;28;20060;-80
2023/01/17 14:02:50;;;;;;;25.20;11.82;;;1.10;99.90;;;;;;5100736;28;20157;-75
2023/01/17 14:05:37;;;;;;;25.40;11.35;;;1.00;99.90;;;;;;5082757;28;20380;-75
2023/01/17 14:08:13;;;;;;;25.40;10.65;;;1.00;99.90;;;;;;5099968;28;20051;-77
2023/01/17 14:10:50;;;;;;;32.40;11.43;;;1.30;99.90;;;;;;5099481;28;20043;-79
2023/01/17 14:13:36;;;;;;;28.80;12.20;;;1.00;99.90;;;;;;5118221;28;20044;-75
2023/01/17 14:16:21;;;;;;;29.33;11.15;;;1.00;99.90;;;;;;5117814;28;20048;-78
2023/01/17 14:18:51;;;;;;;35.67;14.57;;;1.00;99.90;;;;;;5099410;28;20046;-79
2023/01/17 14:21:20;;;;;;;33.35;12.40;;;1.80;99.90;;;;;;5083690;28;20054;-79
2023/01/17 14:23:56;;;;;;;20.17;11.13;;;0.90;99.90;;;;;;5117674;28;20043;-77
2023/01/17 14:26:41;;;;;;;27.55;10.90;;;1.00;99.90;;;;;;5083058;28;20052;-78
2023/01/17 14:29:39;;;;;;;27.45;11.25;;;0.90;99.90;;;;;;5099830;28;20036;-74
2023/01/17 14:32:14;;;;;;;25.15;11.85;;;1.00;99.90;;;;;;5099205;28;20057;-73
2023/01/17 14:34:44;;;;;;;24.85;11.57;;;1.00;99.90;;;;;;5117412;28;20047;-79
2023/01/17 14:37:31;;;;;;;27.50;12.25;;;1.00;99.90;;;;;;5100250;28;20040;-76
2023/01/17 14:39:59;;;;;;;31.98;14.07;;;1.00;99.90;;;;;;5099854;28;20047;-76